Tiempo atmosférico en la estación meteorológica de Albox, Almería (508 m.)



Fecha
DESCASC
Temp. máxima en grados centígrados (hora)
DESCASC
Temp. mínima en grados centígrados (hora)
DESCASC
Temp. media en grados centígrados
DESCASC
Racha de viento máxima en m/sg (hora)
DESCASC
Velocidad máxima media en intervalos de 10 minutos(hora)
DESCASC
Precipitaciones diarias en mm
DESCASC
Precipitaciones de 00:00 a 06:00 en mm
DESCASC
Precipitaciones de 06:00 a 12:00 en mm
DESCASC
Precipitaciones de 12:00 a 18:00 en mm
DESCASC
Precipitaciones de 18:00 a 24:00 en mm
DESCASC
22-04-2019 19 (18:00) 10.4 (06:20) 14.7 13.61 (15:20) 10.28 (15:20) 0 0 0 0 0
21-04-2019 14.5 (16:00) 10.2 (06:40) 12.3 9.44 (17:10) 6.11 (17:20) 1.2 0.6 0.6 0 0
20-04-2019 16.2 (15:10) 9.4 (08:10) 12.8 14.17 (09:10) 8.33 (09:20) 25.8 10.8 13 0 2
19-04-2019 18.1 (17:00) 9.4 (08:00) 13.8 8.89 (01:10) 5.83 (01:20) 0 0 0 0 0
18-04-2019 15.7 (18:20) 8.5 (00:00) 12.1 14.72 (11:20) 11.39 (11:20) 5.8 0 0.2 5.6 0
17-04-2019 22 (15:00) 9.3 (00:00) 15.7 8.61 (15:30) 4.72 (15:30) 0 0 0 0 0
16-04-2019 24.8 (16:10) 12.3 (00:00) 18.5 11.39 (03:20) 8.61 (03:20) 0 0 0 0 0
15-04-2019 27.8 (13:40) 12.9 (00:00) 20.3 8.33 (17:00) 5.28 (17:20) 0 0 0 0 0
14-04-2019 29 (16:10) 12.9 (00:00) 20.9 8.61 (14:30) 6.11 (19:10) 0 0 0 0 0
13-04-2019 26.2 (17:20) 9.7 (00:00) 18 11.94 (11:50) 7.5 (12:00) 0 0 0 0 0
12-04-2019 23.4 (16:50) 8.1 (00:00) 15.8 12.5 (11:50) 8.33 (11:50) 0 0 0 0 0
11-04-2019 21.3 (17:40) 7.2 (00:00) 14.2 13.89 (09:30) 10.28 (09:30) 0 0 0 0 0
10-04-2019 18.7 (16:40) 7.5 (00:00) 13.1 17.5 (10:50) 12.5 (10:50) 2 0 0 0 2
09-04-2019 20.6 (15:50) 9.7 (00:00) 15.2 17.5 (18:50) 11.67 (16:00) 0 0 0 0 0
08-04-2019 23 (16:10) 10.4 (00:00) 16.7 16.94 (11:50) 10.83 (17:00) 0 0 0 0 0
07-04-2019 17.6 (18:10) 7.5 (00:00) 12.6 23.89 (09:20) 14.44 (09:30) 0 0 0 0 0
06-04-2019 17.1 (13:40) 6.5 (00:00) 11.8 21.67 (18:30) 14.44 (18:30) 0.2 0 0 0 0.2
05-04-2019 17.7 (13:00) 7 (00:00) 12.4 19.44 (21:10) 14.17 (21:10) 0.2 0 0 0.2 0
04-04-2019 15.7 (15:50) 8.5 (00:00) 12.1 9.17 (02:40) 5.83 (00:30) 0 0 0 0 0
03-04-2019 24.5 (18:00) 9.6 (00:00) 17.1 12.78 (19:10) 8.89 (19:20) 0 0 0 0 0
02-04-2019 21.5 (17:10) 7.7 (00:00) 14.6 7.78 (14:20) 4.72 (17:30) 0 0 0 0 0
01-04-2019 20.5 (15:10) 8.6 (00:00) 14.6 8.61 (15:10) 5.56 (16:20) 9.8 0.4 0 6.8 2.6
31-03-2019 11.2 (15:40) 8.6 (00:00) 9.9 5 (14:40) 3.89 (12:20) 4.6 2.2 1 1.4 0
30-03-2019 19.4 (14:00) 5.3 (00:00) 12.3 10 (14:20) 5.83 (13:10) 0.2 0 0 0 0.2
29-03-2019 17.3 (16:20) 4.9 (00:00) 11.1 9.17 (14:20) 5.83 (14:40) 0 0 0 0 0
28-03-2019 18.8 (15:00) 4.5 (00:00) 11.6 10.28 (13:40) 5.83 (14:00) 0 0 0 0 0
27-03-2019 18.7 (14:30) 5.7 (00:00) 12.2 11.94 (14:50) 7.22 (11:20) 0 0 0 0 0
26-03-2019 19.2 (14:10) 8 (00:00) 13.6 13.89 (12:30) 8.06 (13:20) 0 0 0 0 0
25-03-2019 22.4 (14:10) 8.1 (00:00) 15.3 9.17 (13:30) 6.11 (13:30) 0 0 0 0 0

Gráficas

Temp. máximas Temp. mínimas Temp. medias Precipitaciones Rachas de viento máximas Velocidades máximas media en intervalos de 10 minutos

Datos horarios

Fecha y hora oficial Temperatura (ºC) Velocidad del viento (km/h) Dirección del viento Racha (km/h) Dirección de racha Precipitación (mm) Presión (hPa) Tendencia (hPa) Humedad (%)
2019-04-23 23:00:00 10.3 26 Oeste 44 Oeste 0 -- -- 54
2019-04-23 22:00:00 10.8 25 Oeste 47 Oeste 0 -- -- 57
2019-04-23 21:00:00 11.9 30 Oeste 57 Noroeste 0 -- -- 56
2019-04-23 20:00:00 14.1 32 Oeste 55 Noroeste 0 -- -- 47
2019-04-23 19:00:00 15.8 30 Oeste 51 Oeste 0 -- -- 39
2019-04-23 18:00:00 17.2 20 Oeste 32 Noroeste 0 -- -- 42
2019-04-23 17:00:00 14.8 8 Oeste 25 Oeste 0 -- -- 67
2019-04-23 16:00:00 15 21 Oeste 28 Oeste 0.2 -- -- 62
2019-04-23 15:00:00 12.6 10 Sudoeste 39 Oeste 0.2 -- -- 80
2019-04-23 14:00:00 13.2 25 Oeste 44 Oeste 0 -- -- 70
2019-04-23 13:00:00 15.7 29 Oeste 39 Oeste 0 -- -- 55
2019-04-23 12:00:00 15.3 2 Nordeste 6 Nordeste 0 -- -- 59
2019-04-23 11:00:00 14.2 2 Sur 15 Sudoeste 0 -- -- 64
2019-04-23 10:00:00 14.3 8 Sudoeste 17 Sudoeste 0 -- -- 63
2019-04-23 09:00:00 13.1 14 Sudoeste 22 Oeste 0 -- -- 66
2019-04-23 08:00:00 11 11 Oeste 22 Oeste 0 -- -- 72
2019-04-23 07:00:00 11.5 9 Oeste 19 Oeste 0 -- -- 71
2019-04-23 06:00:00 11.8 13 Oeste 19 Oeste 0 -- -- 69
2019-04-23 05:00:00 12.8 12 Oeste 31 Oeste 0 -- -- 62
2019-04-23 04:00:00 13.1 18 Oeste 28 Oeste 0 -- -- 61
2019-04-23 03:00:00 12 13 Oeste 18 Oeste 0 -- -- 69
2019-04-23 02:00:00 12 4 Norte 8 Sur 0 -- -- 73
2019-04-23 01:00:00 11.9 4 Oeste 12 Oeste 0 -- -- 74
2019-04-23 00:00:00 12.7 8 Noroeste 10 Noroeste 0 -- -- 70
2019-04-22 23:00:00 13.4 7 Oeste 13 Oeste 0 -- -- 67
2019-04-22 22:00:00 14.2 8 Oeste 18 Oeste 0 -- -- 64
2019-04-22 21:00:00 15.3 15 Oeste 31 Oeste 0 -- -- 57
2019-04-22 20:00:00 17.2 19 Oeste 36 Oeste 0 -- -- 51
2019-04-22 19:00:00 18.7 21 Oeste 45 Noroeste 0 -- -- 49
2019-04-22 18:00:00 19 28 Oeste 45 Oeste 0 -- -- 49
2019-04-22 17:00:00 18.5 27 Oeste 47 Oeste 0 -- -- 52
2019-04-22 16:00:00 16.9 33 Oeste 49 Oeste 0 -- -- 55
2019-04-22 15:00:00 16.5 26 Oeste 44 Sudoeste 0 -- -- 57
2019-04-22 14:00:00 16.2 25 Oeste 41 Oeste 0 -- -- 57
2019-04-22 13:00:00 16.3 27 Oeste 43 Oeste 0 -- -- 57
2019-04-22 12:00:00 15 22 Oeste 31 Oeste 0 -- -- 63
2019-04-22 11:00:00 13.3 24 Oeste 33 Oeste 0 -- -- 68
2019-04-22 10:00:00 11.3 15 Sudoeste 25 Sudoeste 0 -- -- 77
2019-04-22 09:00:00 10.9 18 Sudoeste 24 Oeste 0 -- -- 79
2019-04-22 08:00:00 10.5 10 Sudoeste 17 Sudoeste 0 -- -- 81
2019-04-22 07:00:00 10.6 9 Sudoeste 17 Oeste 0 -- -- 76
2019-04-22 06:00:00 10.5 5 Oeste 10 Oeste 0 -- -- 77
2019-04-22 05:00:00 10.6 10 Oeste 13 Sudoeste 0 -- -- 76
2019-04-22 04:00:00 10.5 4 Oeste 12 Noroeste 0 -- -- 75
2019-04-22 03:00:00 10.9 9 Oeste 21 Noroeste 0 -- -- 73
2019-04-22 02:00:00 11.2 6 Noroeste 23 Noroeste 0 -- -- 72
2019-04-22 01:00:00 11.5 10 Noroeste 17 Noroeste 0 -- -- 71
2019-04-22 00:00:00 11.9 9 Oeste 21 Oeste 0 -- -- 70
2019-04-21 23:00:00 12.2 12 Noroeste 21 Noroeste 0 -- -- 68
2019-04-21 22:00:00 12.2 15 Norte 29 Norte 0 -- -- 71
2019-04-21 21:00:00 12.8 8 Norte 19 Norte 0 -- -- 69
2019-04-21 20:00:00 13.4 12 Noroeste 24 Norte 0 -- -- 68
2019-04-21 19:00:00 13.7 13 Norte 20 Norte 0 -- -- 70
2019-04-21 18:00:00 13.5 13 Norte 34 Norte 0 -- -- 71
2019-04-21 17:00:00 13.8 20 Norte 31 Norte 0 -- -- 69
2019-04-21 16:00:00 14.5 12 Norte 21 Norte 0 -- -- 70
2019-04-21 15:00:00 13.8 18 Norte 28 Norte 0 -- -- 69
2019-04-21 14:00:00 12.7 12 Sudoeste 23 Norte 0 -- -- 77
2019-04-21 13:00:00 11.9 4 Oeste 26 Norte 0 -- -- 80
2019-04-21 12:00:00 11.5 5 Noroeste 27 Norte 0 -- -- 78
2019-04-21 11:00:00 11.2 16 Noroeste 31 Norte 0 -- -- 75
2019-04-21 10:00:00 10.6 18 Norte 28 Norte 0 -- -- 79
2019-04-21 09:00:00 10.3 7 Noroeste 26 Norte 0 -- -- 84
2019-04-21 08:00:00 10.5 8 Oeste 23 Norte 0 -- -- 87
2019-04-21 07:00:00 10.4 12 Noroeste 19 Noroeste 0.6 -- -- 85
2019-04-21 06:00:00 10.6 3 Sudoeste 11 Noroeste 0 -- -- 89
2019-04-21 05:00:00 10.8 6 Noroeste 18 Norte 0.2 -- -- 85
2019-04-21 04:00:00 10.8 2 Nordeste 15 Noroeste 0.2 -- -- 88
2019-04-21 03:00:00 11 6 Norte 15 Nordeste 0.2 -- -- 89
2019-04-21 02:00:00 11.4 3 Nordeste 13 Sudoeste 0 -- -- 92
2019-04-21 01:00:00 11.5 3 Oeste 21 Nordeste 0 -- -- 89
2019-04-21 00:00:00 11.3 7 Norte 17 Nordeste 0 -- -- 93
2019-04-20 23:00:00 11.4 0 Calma 10 Sudoeste 0 -- -- 96
2019-04-20 22:00:00 11.5 2 Sudoeste 8 Sur 0.4 -- -- 96
2019-04-20 21:00:00 11.8 3 Sur 12 Este 0.4 -- -- 95
2019-04-20 20:00:00 12.2 7 Sudeste 12 Sudeste 0.8 -- -- 93
2019-04-20 19:00:00 12.8 7 Sudeste 24 Nordeste 0.4 -- -- 91
2019-04-20 18:00:00 13 19 Nordeste 44 Nordeste 0 -- -- 83
2019-04-20 17:00:00 14 25 Nordeste 44 Nordeste 0 -- -- 80
2019-04-20 16:00:00 15.8 28 Nordeste 44 Nordeste 0 -- -- 74
2019-04-20 15:00:00 15.7 9 Este 17 Este 0 -- -- 77
2019-04-20 14:00:00 14.4 6 Este 18 Nordeste 0 -- -- 79
2019-04-20 13:00:00 14.5 9 Este 17 Este 0 -- -- 83
2019-04-20 12:00:00 12.8 11 Este 25 Este 0 -- -- 91
2019-04-20 11:00:00 11.9 15 Este 33 Este 1.6 -- -- 96
2019-04-20 10:00:00 11.5 18 Este 51 Nordeste 1.6 -- -- 93
2019-04-20 09:00:00 11.6 23 Nordeste 49 Nordeste 1.8 -- -- 95
2019-04-20 08:00:00 9.5 22 Oeste 32 Oeste 5 -- -- 96
2019-04-20 07:00:00 9.6 19 Sudoeste 32 Sudoeste 3 -- -- 96
2019-04-20 06:00:00 9.7 16 Sudoeste 25 Sudoeste 3.2 -- -- 96
2019-04-20 05:00:00 9.9 19 Oeste 32 Sudoeste 2.8 -- -- 95
2019-04-20 04:00:00 10.2 14 Oeste 21 Sudoeste 2.8 -- -- 94
2019-04-20 03:00:00 10.6 2 Oeste 6 Sudoeste 1.2 -- -- 92
2019-04-20 02:00:00 10.5 5 Nordeste 7 Nordeste 0.8 -- -- 91
2019-04-20 01:00:00 10.5 6 Norte 8 Norte 0 -- -- 86
2019-04-20 00:00:00 10.6 7 Oeste 12 Oeste 0 -- -- 87
2019-04-19 23:00:00 10.9 4 Norte 12 Nordeste 0 -- -- 88
2019-04-19 22:00:00 11.9 2 Noroeste 4 Sudoeste 0 -- -- 82
2019-04-19 21:00:00 12.7 3 Sudeste 18 Este 0 -- -- 79
2019-04-19 20:00:00 14.1 11 Este 28 Este 0 -- -- 73
2019-04-19 19:00:00 16.4 11 Sudeste 20 Sudeste 0 -- -- 61
2019-04-19 18:00:00 17.8 5 Este 18 Sudeste 0 -- -- 56
2019-04-19 17:00:00 18.1 8 Este 18 Este 0 -- -- 58
2019-04-19 16:00:00 16.7 13 Este 23 Sudeste 0 -- -- 67
2019-04-19 15:00:00 14.5 12 Este 22 Este 0 -- -- 71
2019-04-19 14:00:00 14.9 15 Este 24 Este 0 -- -- 73
2019-04-19 13:00:00 14.3 15 Este 23 Este 0 -- -- 76
2019-04-19 12:00:00 13.1 9 Este 19 Este 0 -- -- 80
2019-04-19 11:00:00 12.2 3 Nordeste 8 Nordeste 0 -- -- 82
2019-04-19 10:00:00 10.7 3 Nordeste 7 Norte 0 -- -- 88
2019-04-19 09:00:00 9.7 2 Noroeste 4 Noroeste 0 -- -- 88
2019-04-19 08:00:00 9.4 3 Norte 4 Norte 0 -- -- 87
2019-04-19 07:00:00 9.9 0 Calma 4 Sur 0 -- -- 86
2019-04-19 06:00:00 10.1 0 Calma 8 Noroeste 0 -- -- 81
2019-04-19 05:00:00 10.3 5 Noroeste 9 Oeste 0 -- -- 78
2019-04-19 04:00:00 10.5 4 Oeste 11 Oeste 0 -- -- 77
2019-04-19 03:00:00 10.9 4 Sur 14 Oeste 0 -- -- 75
2019-04-19 02:00:00 10.9 10 Sudoeste 32 Oeste 0 -- -- 73
2019-04-19 01:00:00 10.8 16 Oeste 24 Noroeste 0 -- -- 74
2019-04-19 00:00:00 10.8 6 Noroeste 20 Oeste 0 -- -- 78
2019-04-18 23:00:00 11.4 14 Oeste 27 Oeste 0 -- -- 77
2019-04-18 22:00:00 11.4 18 Sudoeste 25 Oeste 0 -- -- 81
2019-04-18 21:00:00 12.8 0 Calma 17 Sudeste 0 -- -- 84
2019-04-18 20:00:00 15.1 9 Sudeste 15 Nordeste 0 -- -- 75
2019-04-18 19:00:00 15.4 8 Este 15 Este 0 -- -- 73
2019-04-18 18:00:00 15 8 Este 14 Nordeste 0 -- -- 73
2019-04-18 17:00:00 12.1 4 Sur 14 Sudoeste 0 -- -- 91
2019-04-18 16:00:00 10 7 Oeste 21 Oeste 0 -- -- 94
2019-04-18 15:00:00 9.8 10 Nordeste 29 Sudoeste 1.8 -- -- 93
2019-04-18 14:00:00 8.5 25 Sudoeste 37 Sudoeste 2 -- -- 93
2019-04-18 13:00:00 8.7 18 Oeste 43 Sudoeste 1.8 -- -- 91
2019-04-18 12:00:00 9.7 23 Oeste 53 Sudoeste 0.2 -- -- 84
2019-04-18 11:00:00 14.3 10 Oeste 14 Sudoeste 0 -- -- 71
2019-04-18 10:00:00 14 6 Nordeste 12 Nordeste 0 -- -- 67
2019-04-18 09:00:00 13.3 7 Nordeste 10 Nordeste 0 -- -- 73
2019-04-18 08:00:00 10.9 9 Norte 10 Norte 0 -- -- 78
2019-04-18 07:00:00 12 0 Calma 15 Nordeste 0 -- -- 73
2019-04-18 06:00:00 12.1 9 Nordeste 15 Este 0 -- -- 73
2019-04-18 05:00:00 12.6 8 Este 13 Nordeste 0 -- -- 72
2019-04-18 04:00:00 13.6 5 Sudoeste 19 Sudoeste 0 -- -- 69
2019-04-18 03:00:00 14.5 8 Noroeste 19 Oeste 0 -- -- 63
2019-04-18 02:00:00 14.2 8 Noroeste 10 Noroeste 0 -- -- 68
2019-04-18 01:00:00 14.6 3 Nordeste 13 Nordeste 0 -- -- 68
2019-04-18 00:00:00 15.2 4 Sur 11 Noroeste 0 -- -- 67
2019-04-17 23:00:00 15.1 11 Oeste 18 Oeste 0 -- -- 65
2019-04-17 22:00:00 15.3 4 Este 9 Este 0 -- -- 60
2019-04-17 21:00:00 16.4 7 Este 12 Sudeste 0 -- -- 64
2019-04-17 20:00:00 18.5 5 Sudeste 17 Este 0 -- -- 62
2019-04-17 19:00:00 20.5 12 Este 21 Este 0 -- -- 57
2019-04-17 18:00:00 20.8 13 Este 23 Este 0 -- -- 55
2019-04-17 17:00:00 21.5 10 Sudeste 26 Este 0 -- -- 50
2019-04-17 16:00:00 21.4 15 Este 31 Este 0 -- -- 49
2019-04-17 15:00:00 22 15 Este 28 Sudeste 0 -- -- 49
2019-04-17 14:00:00 21.7 12 Este 27 Este 0 -- -- 47
2019-04-17 13:00:00 21 11 Sudeste 23 Este 0 -- -- 48
2019-04-17 12:00:00 17 5 Sur 15 Este 0 -- -- 61
2019-04-17 11:00:00 17 5 Sudeste 13 Sudeste 0 -- -- 62
2019-04-17 10:00:00 14.5 3 Sur 5 Sudeste 0 -- -- 70
2019-04-17 09:00:00 11.9 5 Noroeste 10 Noroeste 0 -- -- 73
2019-04-17 08:00:00 9.9 7 Norte 9 Noroeste 0 -- -- 79
2019-04-17 07:00:00 9.7 6 Noroeste 11 Noroeste 0 -- -- 81
2019-04-17 06:00:00 9.7 5 Norte 9 Noroeste 0 -- -- 81
2019-04-17 05:00:00 9.7 4 Norte 8 Norte 0 -- -- 84
2019-04-17 04:00:00 10.8 4 Norte 10 Nordeste 0 -- -- 85
2019-04-17 03:00:00 11.6 3 Nordeste 9 Noroeste 0 -- -- 83
2019-04-17 02:00:00 12.3 4 Norte 7 Noroeste 0 -- -- 85
2019-04-17 01:00:00 12.9 2 Noroeste 5 Sudoeste 0 -- -- 82
2019-04-17 00:00:00 13.1 0 Calma 6 Este 0 -- -- 84
2019-04-16 23:00:00 13.1 4 Este 10 Este 0 -- -- 81
2019-04-16 22:00:00 14.2 5 Sudeste 18 Este 0 -- -- 77
2019-04-16 21:00:00 15.6 11 Sudeste 27 Sudeste 0 -- -- 69
2019-04-16 20:00:00 18.9 14 Sudeste 28 Sudeste 0 -- -- 49
2019-04-16 19:00:00 20 16 Sudeste 30 Sudeste 0 -- -- 43
2019-04-16 18:00:00 23.4 18 Este 33 Este 0 -- -- 37
2019-04-16 17:00:00 24.4 18 Sudeste 31 Sudeste 0 -- -- 36
2019-04-16 16:00:00 24.6 15 Este 33 Este 0 -- -- 37
2019-04-16 15:00:00 24.4 15 Sudeste 32 Este 0 -- -- 37
2019-04-16 14:00:00 23.9 18 Este 33 Sudeste 0 -- -- 39
2019-04-16 13:00:00 23.4 17 Sudeste 30 Este 0 -- -- 41
2019-04-16 12:00:00 22.9 18 Este 28 Este 0 -- -- 42
2019-04-16 11:00:00 21.2 8 Este 15 Este 0 -- -- 44
2019-04-16 10:00:00 17.9 5 Sudeste 18 Sudoeste 0 -- -- 55
2019-04-16 09:00:00 14.7 13 Oeste 26 Oeste 0 -- -- 66
2019-04-16 08:00:00 13.7 21 Oeste 29 Noroeste 0 -- -- 69
2019-04-16 07:00:00 13.5 13 Sudoeste 21 Oeste 0 -- -- 70
2019-04-16 06:00:00 14.2 4 Norte 22 Oeste 0 -- -- 69
2019-04-16 05:00:00 14.9 20 Oeste 29 Oeste 0 -- -- 68
2019-04-16 04:00:00 15.5 4 Oeste 41 Oeste 0 -- -- 61
2019-04-16 03:00:00 15.9 24 Oeste 33 Oeste 0 -- -- 60
2019-04-16 02:00:00 16.1 18 Noroeste 32 Noroeste 0 -- -- 49
2019-04-16 01:00:00 12.4 4 Norte 12 Norte 0 -- -- 60
2019-04-16 00:00:00 12.9 3 Noroeste 5 Oeste 0 -- -- 63
2019-04-15 23:00:00 14 0 Calma 7 Este 0 -- -- 61
2019-04-15 22:00:00 14.7 4 Este 10 Este 0 -- -- 59
2019-04-15 21:00:00 16.5 6 Sudeste 19 Este 0 -- -- 46
2019-04-15 20:00:00 19.2 12 Este 24 Este 0 -- -- 38
2019-04-15 19:00:00 21.6 12 Este 23 Este 0 -- -- 37
2019-04-15 18:00:00 23.6 16 Este 29 Este 0 -- -- 37
2019-04-15 17:00:00 25.2 18 Este 30 Sudeste 0 -- -- 37
2019-04-15 16:00:00 26.2 18 Este 27 Este 0 -- -- 36
2019-04-15 15:00:00 25.6 17 Este 26 Este 0 -- -- 38
2019-04-15 14:00:00 27.5 16 Este 27 Sudeste 0 -- -- 32
2019-04-15 13:00:00 26.9 17 Este 27 Este 0 -- -- 31
2019-04-15 12:00:00 25.4 12 Este 19 Este 0 -- -- 33
2019-04-15 11:00:00 23.3 7 Sur 12 Sur 0 -- -- 40
2019-04-15 10:00:00 20.1 0 Calma 8 Noroeste 0 -- -- 49
2019-04-15 09:00:00 15.6 3 Sudoeste 13 Noroeste 0 -- -- 62
2019-04-15 08:00:00 14.7 9 Noroeste 13 Noroeste 0 -- -- 62
2019-04-15 07:00:00 14.9 9 Norte 13 Noroeste 0 -- -- 62
2019-04-15 06:00:00 15.1 10 Noroeste 12 Noroeste 0 -- -- 61
2019-04-15 05:00:00 15.2 4 Oeste 13 Noroeste 0 -- -- 61
2019-04-15 04:00:00 16.2 8 Noroeste 11 Noroeste 0 -- -- 58
2019-04-15 03:00:00 16.5 9 Noroeste 11 Noroeste 0 -- -- 57
2019-04-15 02:00:00 17.9 7 Noroeste 10 Noroeste 0 -- -- 52
2019-04-15 01:00:00 18 6 Noroeste 15 Noroeste 0 -- -- 42
2019-04-15 00:00:00 18.1 9 Noroeste 13 Noroeste 0 -- -- 41
2019-04-14 23:00:00 18.5 0 Calma 8 Norte 0 -- -- 40
2019-04-14 22:00:00 19.9 5 Norte 9 Norte 0 -- -- 36
2019-04-14 21:00:00 21.3 8 Nordeste 21 Este 0 -- -- 30
2019-04-14 20:00:00 23.9 14 Este 30 Este 0 -- -- 26
2019-04-14 19:00:00 26.3 18 Este 30 Este 0 -- -- 23
2019-04-14 18:00:00 28.4 17 Este 29 Este 0 -- -- 23
2019-04-14 17:00:00 28.8 14 Sudeste 26 Sudeste 0 -- -- 23
2019-04-14 16:00:00 28.7 9 Sudeste 30 Este 0 -- -- 23
2019-04-14 15:00:00 28 16 Sudeste 31 Este 0 -- -- 25
2019-04-14 14:00:00 27.1 12 Sudeste 24 Este 0 -- -- 24
2019-04-14 13:00:00 25.5 7 Sudoeste 22 Sudeste 0 -- -- 24
2019-04-14 12:00:00 23.4 6 Sur 18 Sudoeste 0 -- -- 30
2019-04-14 11:00:00 20.9 14 Sudoeste 21 Sudoeste 0 -- -- 38
2019-04-14 10:00:00 17.9 9 Sudoeste 20 Oeste 0 -- -- 44
2019-04-14 09:00:00 15.3 13 Oeste 27 Oeste 0 -- -- 48
2019-04-14 08:00:00 13.9 19 Oeste 28 Oeste 0 -- -- 48
2019-04-14 07:00:00 13 11 Oeste 17 Oeste 0 -- -- 50
2019-04-14 06:00:00 13.5 10 Oeste 27 Oeste 0 -- -- 47
2019-04-14 05:00:00 13.3 17 Oeste 24 Oeste 0 -- -- 45
2019-04-14 04:00:00 13.7 6 Sudoeste 18 Oeste 0 -- -- 44
2019-04-14 03:00:00 14.7 8 Oeste 19 Sudoeste 0 -- -- 42
2019-04-14 02:00:00 14.9 11 Sudoeste 26 Oeste 0 -- -- 42
2019-04-14 01:00:00 15.3 16 Oeste 27 Sudoeste 0 -- -- 42
2019-04-14 00:00:00 15.7 15 Sudoeste 26 Sudoeste 0 -- -- 42
2019-04-13 23:00:00 17 16 Sudoeste 25 Sudoeste 0 -- -- 36
2019-04-13 22:00:00 17.2 9 Sudoeste 19 Oeste 0 -- -- 35
2019-04-13 21:00:00 17.9 9 Norte 18 Este 0 -- -- 35
2019-04-13 20:00:00 21.2 13 Este 23 Este 0 -- -- 29
2019-04-13 19:00:00 23.4 18 Este 31 Este 0 -- -- 26
2019-04-13 18:00:00 24.3 21 Este 39 Este 0 -- -- 24
2019-04-13 17:00:00 25.8 10 Noroeste 28 Noroeste 0 -- -- 19
2019-04-13 16:00:00 25.4 10 Sudoeste 27 Noroeste 0 -- -- 20
2019-04-13 15:00:00 24 10 Oeste 25 Noroeste 0 -- -- 19
2019-04-13 14:00:00 23 15 Oeste 30 Oeste 0 -- -- 23
2019-04-13 13:00:00 21.6 14 Oeste 38 Oeste 0 -- -- 27
2019-04-13 12:00:00 19.8 27 Oeste 43 Sudoeste 0 -- -- 30
2019-04-13 11:00:00 18.3 24 Oeste 31 Oeste 0 -- -- 34
2019-04-13 10:00:00 14.7 10 Sudoeste 16 Sudoeste 0 -- -- 47
2019-04-13 09:00:00 11.3 9 Sudoeste 12 Sudoeste 0 -- -- 55
2019-04-13 08:00:00 9.9 3 Noroeste 5 Oeste 0 -- -- 56
2019-04-13 07:00:00 10.7 5 Noroeste 13 Norte 0 -- -- 53
2019-04-13 06:00:00 11.5 11 Norte 16 Noroeste 0 -- -- 50
2019-04-13 05:00:00 10.9 10 Noroeste 14 Norte 0 -- -- 50
2019-04-13 04:00:00 11.2 9 Noroeste 12 Noroeste 0 -- -- 48
2019-04-13 03:00:00 10.5 10 Noroeste 13 Oeste 0 -- -- 50
2019-04-13 02:00:00 10.6 10 Oeste 18 Oeste 0 -- -- 51
2019-04-13 01:00:00 11.8 12 Noroeste 18 Oeste 0 -- -- 48
2019-04-13 00:00:00 11.8 8 Noroeste 12 Oeste 0 -- -- 51
2019-04-12 23:00:00 13 7 Noroeste 10 Noroeste 0 -- -- 52
2019-04-12 22:00:00 13.7 2 Sudoeste 17 Norte 0 -- -- 49
2019-04-12 21:00:00 15.2 10 Nordeste 29 Este 0 -- -- 45
2019-04-12 20:00:00 19.2 19 Este 37 Oeste 0 -- -- 32
2019-04-12 19:00:00 22.5 22 Oeste 37 Oeste 0 -- -- 25
2019-04-12 18:00:00 23.3 20 Oeste 32 Oeste 0 -- -- 25
2019-04-12 17:00:00 23.3 14 Noroeste 32 Oeste 0 -- -- 24
2019-04-12 16:00:00 23.1 19 Oeste 35 Oeste 0 -- -- 23
2019-04-12 15:00:00 21.5 18 Noroeste 40 Oeste 0 -- -- 26
2019-04-12 14:00:00 20.5 22 Oeste 40 Oeste 0 -- -- 27
2019-04-12 13:00:00 19.2 21 Noroeste 37 Oeste 0 -- -- 28
2019-04-12 12:00:00 17.7 27 Oeste 45 Oeste 0 -- -- 32
2019-04-12 11:00:00 16.2 21 Oeste 36 Oeste 0 -- -- 36
2019-04-12 10:00:00 13.7 14 Sudoeste 27 Oeste 0 -- -- 49
2019-04-12 09:00:00 11.1 23 Oeste 31 Oeste 0 -- -- 52
2019-04-12 08:00:00 8.7 21 Oeste 27 Oeste 0 -- -- 61
2019-04-12 07:00:00 8.4 10 Oeste 24 Oeste 0 -- -- 62
2019-04-12 06:00:00 9.3 19 Oeste 26 Oeste 0 -- -- 60
2019-04-12 05:00:00 9 10 Noroeste 21 Oeste 0 -- -- 59
2019-04-12 04:00:00 9.9 18 Oeste 25 Oeste 0 -- -- 57
2019-04-12 03:00:00 10.3 4 Norte 23 Oeste 0 -- -- 53
2019-04-12 02:00:00 11.2 15 Oeste 32 Oeste 0 -- -- 50
2019-04-12 01:00:00 11.1 16 Oeste 22 Oeste 0 -- -- 50
2019-04-12 00:00:00 12.3 12 Noroeste 26 Noroeste 0 -- -- 44
2019-04-11 23:00:00 12 4 Oeste 16 Oeste 0 -- -- 44
2019-04-11 22:00:00 13.5 12 Oeste 18 Oeste 0 -- -- 41
2019-04-11 21:00:00 15.4 13 Noroeste 21 Noroeste 0 -- -- 35
2019-04-11 20:00:00 17.2 8 Este 22 Este 0 -- -- 44
2019-04-11 19:00:00 19.4 17 Este 40 Noroeste 0 -- -- 39
2019-04-11 18:00:00 21.3 26 Oeste 44 Oeste 0 -- -- 27
2019-04-11 17:00:00 20.6 22 Oeste 37 Oeste 0 -- -- 29
2019-04-11 16:00:00 19.1 14 Noroeste 32 Oeste 0 -- -- 37
2019-04-11 15:00:00 17.4 9 Oeste 35 Sudoeste 0 -- -- 38
2019-04-11 14:00:00 19 24 Sudoeste 36 Oeste 0 -- -- 38
2019-04-11 13:00:00 17.4 28 Oeste 41 Oeste 0 -- -- 43
2019-04-11 12:00:00 15.7 28 Oeste 44 Oeste 0 -- -- 48
2019-04-11 11:00:00 13.7 31 Oeste 45 Oeste 0 -- -- 57
2019-04-11 10:00:00 11.3 29 Oeste 50 Oeste 0 -- -- 66
2019-04-11 09:00:00 9.3 25 Oeste 46 Oeste 0 -- -- 72
2019-04-11 08:00:00 8.2 30 Oeste 36 Oeste 0 -- -- 75
2019-04-11 07:00:00 8.1 14 Noroeste 24 Noroeste 0 -- -- 76
2019-04-11 06:00:00 7.8 6 Oeste 16 Oeste 0 -- -- 76
2019-04-11 05:00:00 7.5 13 Oeste 32 Sudoeste 0 -- -- 79
2019-04-11 04:00:00 7.5 23 Sudoeste 31 Sudoeste 0 -- -- 79
2019-04-11 03:00:00 7.8 20 Oeste 30 Sudoeste 0 -- -- 78
2019-04-11 02:00:00 7.8 17 Sudoeste 44 Sudoeste 0 -- -- 81
2019-04-11 01:00:00 7.2 28 Sudoeste 38 Sudoeste 0 -- -- 86
2019-04-11 00:00:00 7.8 18 Sudoeste 35 Sudoeste 0 -- -- 89
2019-04-10 23:00:00 8.3 16 Oeste 45 Oeste 2 -- -- 86
2019-04-10 22:00:00 10.5 41 Noroeste 57 Noroeste 0 -- -- 73
2019-04-10 21:00:00 13.4 17 Oeste 44 Oeste 0 -- -- 46
2019-04-10 20:00:00 15.4 27 Oeste 44 Oeste 0 -- -- 39
2019-04-10 19:00:00 17.3 28 Oeste 51 Oeste 0 -- -- 35
2019-04-10 18:00:00 17.6 34 Oeste 54 Oeste 0 -- -- 35
2019-04-10 17:00:00 18.4 32 Oeste 51 Oeste 0 -- -- 32
2019-04-10 16:00:00 18.2 39 Oeste 59 Oeste 0 -- -- 31
2019-04-10 15:00:00 17.5 33 Oeste 53 Oeste 0 -- -- 34
2019-04-10 14:00:00 17.2 32 Oeste 57 Oeste 0 -- -- 36
2019-04-10 13:00:00 16.5 31 Oeste 56 Oeste 0 -- -- 39
2019-04-10 12:00:00 14.2 43 Oeste 59 Oeste 0 -- -- 43
2019-04-10 11:00:00 12.9 44 Oeste 63 Oeste 0 -- -- 53
2019-04-10 10:00:00 12 33 Oeste 53 Oeste 0 -- -- 54
2019-04-10 09:00:00 10.5 10 Oeste 33 Oeste 0 -- -- 60
2019-04-10 08:00:00 9.6 21 Oeste 36 Oeste 0 -- -- 65
2019-04-10 07:00:00 9.4 20 Oeste 32 Oeste 0 -- -- 68
2019-04-10 06:00:00 10 19 Oeste 42 Sudoeste 0 -- -- 65
2019-04-10 05:00:00 10.5 28 Oeste 44 Oeste 0 -- -- 64
2019-04-10 04:00:00 10.1 26 Sudoeste 41 Sudoeste 0 -- -- 69
2019-04-10 03:00:00 10.2 19 Sudoeste 26 Sudoeste 0 -- -- 67
2019-04-10 02:00:00 10.6 14 Sudoeste 41 Oeste 0 -- -- 65
2019-04-10 01:00:00 11.5 24 Oeste 52 Oeste 0 -- -- 61
2019-04-10 00:00:00 11.9 26 Oeste 45 Oeste 0 -- -- 58
2019-04-09 23:00:00 12.6 25 Oeste 39 Oeste 0 -- -- 58
2019-04-09 22:00:00 12.4 9 Oeste 38 Oeste 0 -- -- 54
2019-04-09 21:00:00 13.5 23 Oeste 46 Oeste 0 -- -- 50
2019-04-09 20:00:00 15.6 31 Oeste 55 Oeste 0 -- -- 45
2019-04-09 19:00:00 17.7 36 Oeste 63 Oeste 0 -- -- 37
2019-04-09 18:00:00 18.5 35 Oeste 61 Oeste 0 -- -- 35
2019-04-09 17:00:00 19.3 37 Oeste 58 Oeste 0 -- -- 34
2019-04-09 16:00:00 18.3 42 Oeste 62 Oeste 0 -- -- 38
2019-04-09 15:00:00 18.8 30 Oeste 54 Oeste 0 -- -- 33
2019-04-09 14:00:00 16.6 32 Oeste 44 Oeste 0 -- -- 39
2019-04-09 13:00:00 16.9 30 Oeste 53 Sudoeste 0 -- -- 41
2019-04-09 12:00:00 15.9 30 Oeste 51 Oeste 0 -- -- 42
2019-04-09 11:00:00 13.6 37 Oeste 56 Oeste 0 -- -- 46
2019-04-09 10:00:00 12.2 35 Oeste 53 Oeste 0 -- -- 52
2019-04-09 09:00:00 10.5 25 Oeste 37 Oeste 0 -- -- 62
2019-04-09 08:00:00 9.8 29 Oeste 44 Oeste 0 -- -- 64
2019-04-09 07:00:00 10.4 29 Oeste 45 Oeste 0 -- -- 62
2019-04-09 06:00:00 10.7 26 Oeste 56 Oeste 0 -- -- 62
2019-04-09 05:00:00 11.2 36 Oeste 50 Oeste 0 -- -- 65
2019-04-09 04:00:00 11.6 20 Noroeste 35 Noroeste 0 -- -- 62
2019-04-09 03:00:00 12.2 17 Noroeste 38 Oeste 0 -- -- 60
2019-04-09 02:00:00 13.1 18 Oeste 41 Oeste 0 -- -- 53
2019-04-09 01:00:00 13.8 20 Oeste 40 Sudoeste 0 -- -- 46
2019-04-09 00:00:00 14.3 16 Oeste 46 Oeste 0 -- -- 54
2019-04-08 23:00:00 13.6 14 Oeste 27 Oeste 0 -- -- 70
2019-04-08 22:00:00 14.4 18 Oeste 50 Oeste 0 -- -- 66
2019-04-08 21:00:00 15.8 22 Noroeste 34 Oeste 0 -- -- 58
2019-04-08 20:00:00 16.7 24 Oeste 46 Oeste 0 -- -- 54
2019-04-08 19:00:00 18.6 31 Oeste 49 Oeste 0 -- -- 48
2019-04-08 18:00:00 20.8 32 Oeste 56 Oeste 0 -- -- 43
2019-04-08 17:00:00 21.2 39 Oeste 55 Oeste 0 -- -- 42
2019-04-08 16:00:00 22.4 24 Noroeste 45 Noroeste 0 -- -- 40
2019-04-08 15:00:00 20.5 29 Oeste 50 Oeste 0 -- -- 43
2019-04-08 14:00:00 20 23 Oeste 45 Oeste 0 -- -- 44
2019-04-08 13:00:00 18.2 27 Oeste 49 Oeste 0 -- -- 48
2019-04-08 12:00:00 16.1 37 Oeste 61 Oeste 0 -- -- 50
2019-04-08 11:00:00 15.6 33 Oeste 50 Oeste 0 -- -- 48
2019-04-08 10:00:00 14.2 24 Oeste 41 Oeste 0 -- -- 60
2019-04-08 09:00:00 13.1 26 Oeste 39 Oeste 0 -- -- 67
2019-04-08 08:00:00 12.4 19 Oeste 31 Oeste 0 -- -- 71
2019-04-08 07:00:00 12.6 22 Oeste 34 Oeste 0 -- -- 72
2019-04-08 06:00:00 12.9 23 Oeste 36 Oeste 0 -- -- 72
2019-04-08 05:00:00 12.5 23 Oeste 33 Oeste 0 -- -- 73
2019-04-08 04:00:00 12.7 22 Oeste 32 Oeste 0 -- -- 73
2019-04-08 03:00:00 10.6 8 Oeste 15 Oeste 0 -- -- 84
2019-04-08 02:00:00 11.5 4 Noroeste 8 Noroeste 0 -- -- 83
2019-04-08 01:00:00 11.8 4 Norte 6 Noroeste 0 -- -- 77
2019-04-08 00:00:00 12.1 4 Noroeste 9 Norte 0 -- -- 71
2019-04-07 23:00:00 12 6 Norte 21 Noroeste 0 -- -- 68
2019-04-07 22:00:00 12.4 13 Noroeste 21 Noroeste 0 -- -- 65
2019-04-07 21:00:00 12.7 17 Oeste 27 Oeste 0 -- -- 62
2019-04-07 20:00:00 14.6 22 Oeste 36 Oeste 0 -- -- 53
2019-04-07 19:00:00 15.2 25 Oeste 44 Sudoeste 0 -- -- 47
2019-04-07 18:00:00 17.4 21 Oeste 33 Oeste 0 -- -- 43
2019-04-07 17:00:00 15.6 20 Oeste 51 Oeste 0 -- -- 45
2019-04-07 16:00:00 15.6 31 Oeste 66 Oeste 0 -- -- 44
2019-04-07 15:00:00 14.7 39 Oeste 62 Sudoeste 0 -- -- 46
2019-04-07 14:00:00 16.1 38 Oeste 58 Oeste 0 -- -- 42
2019-04-07 13:00:00 14.7 36 Oeste 60 Oeste 0 -- -- 48
2019-04-07 12:00:00 13 34 Oeste 64 Oeste 0 -- -- 50
2019-04-07 11:00:00 11.6 47 Oeste 74 Oeste 0 -- -- 55
2019-04-07 10:00:00 10.3 45 Oeste 86 Oeste 0 -- -- 59
2019-04-07 09:00:00 9.4 44 Oeste 72 Oeste 0 -- -- 61
2019-04-07 08:00:00 8.5 42 Oeste 63 Oeste 0 -- -- 64
2019-04-07 07:00:00 8.5 36 Oeste 64 Oeste 0 -- -- 66
2019-04-07 06:00:00 7.6 35 Oeste 59 Oeste 0 -- -- 72
2019-04-07 05:00:00 8.5 38 Oeste 58 Oeste 0 -- -- 67
2019-04-07 04:00:00 8.1 28 Oeste 49 Oeste 0 -- -- 68
2019-04-07 03:00:00 8 32 Oeste 50 Oeste 0 -- -- 69
2019-04-07 02:00:00 7.7 26 Oeste 46 Oeste 0 -- -- 69
2019-04-07 01:00:00 8.2 30 Oeste 53 Oeste 0 -- -- 67
2019-04-07 00:00:00 7.8 32 Oeste 47 Oeste 0 -- -- 70
2019-04-06 23:00:00 6.7 31 Oeste 51 Oeste 0 -- -- 76
2019-04-06 22:00:00 7.6 12 Oeste 28 Oeste 0 -- -- 74
2019-04-06 21:00:00 8.6 10 Oeste 42 Oeste 0 -- -- 69
2019-04-06 20:00:00 9.3 33 Oeste 50 Oeste 0 -- -- 70
2019-04-06 19:00:00 8.8 22 Sudoeste 78 Oeste 0.2 -- -- 84
2019-04-06 18:00:00 14.5 40 Oeste 68 Oeste 0 -- -- 43
2019-04-06 17:00:00 16.5 37 Oeste 76 Oeste 0 -- -- 39
2019-04-06 16:00:00 15.6 45 Oeste 61 Oeste 0 -- -- 41
2019-04-06 15:00:00 13.5 38 Oeste 54 Oeste 0 -- -- 49
2019-04-06 14:00:00 14.2 44 Oeste 64 Oeste 0 -- -- 48
2019-04-06 13:00:00 15.8 29 Oeste 52 Sudoeste 0 -- -- 38
2019-04-06 12:00:00 14.4 30 Oeste 50 Oeste 0 -- -- 41
2019-04-06 11:00:00 12.2 26 Oeste 47 Oeste 0 -- -- 48
2019-04-06 10:00:00 10.6 6 Oeste 46 Oeste 0 -- -- 53
2019-04-06 09:00:00 8.3 31 Oeste 51 Oeste 0 -- -- 59
2019-04-06 08:00:00 7.3 21 Sudoeste 53 Oeste 0 -- -- 62
2019-04-06 07:00:00 7.1 35 Oeste 50 Oeste 0 -- -- 67
2019-04-06 06:00:00 6.8 15 Oeste 56 Oeste 0 -- -- 67
2019-04-06 05:00:00 7 38 Oeste 54 Oeste 0 -- -- 67
2019-04-06 04:00:00 7.2 21 Oeste 56 Oeste 0 -- -- 67
2019-04-06 03:00:00 8.4 32 Oeste 52 Oeste 0 -- -- 60
2019-04-06 02:00:00 6.9 3 Noroeste 9 Oeste 0 -- -- 61
2019-04-06 01:00:00 7.6 5 Oeste 20 Noroeste 0 -- -- 59
2019-04-06 00:00:00 8 13 Oeste 41 Oeste 0 -- -- 58
2019-04-05 23:00:00 8.1 27 Oeste 43 Sudoeste 0 -- -- 60
2019-04-05 22:00:00 7.5 21 Oeste 70 Oeste 0 -- -- 63
2019-04-05 21:00:00 8.5 39 Oeste 59 Oeste 0 -- -- 60
2019-04-05 20:00:00 12.6 40 Oeste 65 Oeste 0 -- -- 41
2019-04-05 19:00:00 15.1 24 Sudoeste 42 Oeste 0 -- -- 40
2019-04-05 18:00:00 12 16 Oeste 40 Noroeste 0 -- -- 56
2019-04-05 17:00:00 12.1 23 Sudoeste 65 Oeste 0 -- -- 58
2019-04-05 16:00:00 11.2 24 Oeste 39 Oeste 0 -- -- 71
2019-04-05 15:00:00 10.3 16 Oeste 62 Noroeste 0.2 -- -- 73
2019-04-05 14:00:00 15.6 21 Sudoeste 36 Sudoeste 0 -- -- 52
2019-04-05 13:00:00 17.7 9 Nordeste 20 Este 0 -- -- 43
2019-04-05 12:00:00 15.6 8 Sur 18 Sudeste 0 -- -- 46
2019-04-05 11:00:00 13.6 6 Sur 19 Sudoeste 0 -- -- 50
2019-04-05 10:00:00 10 14 Sudoeste 24 Sudoeste 0 -- -- 59
2019-04-05 09:00:00 8.9 14 Sudoeste 26 Sudoeste 0 -- -- 61
2019-04-05 08:00:00 7.2 6 Sudoeste 17 Oeste 0 -- -- 67
2019-04-05 07:00:00 7.8 8 Sudoeste 28 Sudoeste 0 -- -- 64
2019-04-05 06:00:00 7 8 Oeste 12 Oeste 0 -- -- 89
2019-04-05 05:00:00 7.8 7 Noroeste 10 Noroeste 0 -- -- 88
2019-04-05 04:00:00 8.9 4 Oeste 6 Oeste 0 -- -- 89
2019-04-05 03:00:00 9.3 0 Calma 4 Noroeste 0 -- -- 87
2019-04-05 02:00:00 9.8 0 Calma 5 Nordeste 0 -- -- 84
2019-04-05 01:00:00 9.8 4 Nordeste 13 Este 0 -- -- 86
2019-04-05 00:00:00 10.5 7 Este 16 Este 0 -- -- 82
2019-04-04 23:00:00 10.5 10 Este 20 Este 0 -- -- 80
2019-04-04 22:00:00 10.6 13 Este 19 Este 0 -- -- 78
2019-04-04 21:00:00 10.9 12 Este 22 Este 0 -- -- 76
2019-04-04 20:00:00 11.1 14 Este 25 Este 0 -- -- 73
2019-04-04 19:00:00 11.9 14 Este 28 Este 0 -- -- 68
2019-04-04 18:00:00 12.4 18 Este 31 Sudeste 0 -- -- 65
2019-04-04 17:00:00 14.2 18 Este 28 Sudeste 0 -- -- 63
2019-04-04 16:00:00 15.7 9 Sudeste 19 Este 0 -- -- 59
2019-04-04 15:00:00 15.4 12 Sudeste 25 Este 0 -- -- 59
2019-04-04 14:00:00 14.1 12 Sudeste 26 Sudeste 0 -- -- 62
2019-04-04 13:00:00 15.1 12 Sudeste 23 Este 0 -- -- 58
2019-04-04 12:00:00 14.8 10 Sudeste 22 Este 0 -- -- 59
2019-04-04 11:00:00 14.6 9 Este 23 Este 0 -- -- 60
2019-04-04 10:00:00 13 9 Sudeste 21 Este 0 -- -- 67
2019-04-04 09:00:00 10.6 9 Este 15 Este 0 -- -- 83
2019-04-04 08:00:00 8.9 7 Este 27 Este 0 -- -- 81
2019-04-04 07:00:00 9.3 7 Este 16 Nordeste 0 -- -- 67
2019-04-04 06:00:00 9.8 8 Noroeste 22 Oeste 0 -- -- 65
2019-04-04 05:00:00 11.2 8 Noroeste 29 Oeste 0 -- -- 60
2019-04-04 04:00:00 11.6 18 Oeste 24 Oeste 0 -- -- 58
2019-04-04 03:00:00 12.7 14 Oeste 33 Oeste 0 -- -- 55
2019-04-04 02:00:00 13.6 12 Oeste 27 Oeste 0 -- -- 51
2019-04-04 01:00:00 14.3 17 Noroeste 28 Oeste 0 -- -- 49
2019-04-04 00:00:00 14.8 15 Oeste 24 Oeste 0 -- -- 46
2019-04-03 23:00:00 15.6 10 Oeste 31 Oeste 0 -- -- 45
2019-04-03 22:00:00 16.7 23 Oeste 36 Oeste 0 -- -- 42
2019-04-03 21:00:00 18.2 28 Oeste 41 Oeste 0 -- -- 38
2019-04-03 20:00:00 20.8 25 Oeste 46 Oeste 0 -- -- 35
2019-04-03 19:00:00 23.4 27 Oeste 40 Oeste 0 -- -- 32
2019-04-03 18:00:00 24.5 11 Sudoeste 24 Noroeste 0 -- -- 34
2019-04-03 17:00:00 23.1 11 Este 21 Este 0 -- -- 39
2019-04-03 16:00:00 24 13 Este 27 Sudeste 0 -- -- 40
2019-04-03 15:00:00 23.6 19 Sudeste 33 Sudeste 0 -- -- 41
2019-04-03 14:00:00 22.3 8 Sudoeste 20 Sur 0 -- -- 33
2019-04-03 13:00:00 20.9 8 Sudoeste 26 Oeste 0 -- -- 44
2019-04-03 12:00:00 19.8 4 Este 27 Nordeste 0 -- -- 47
2019-04-03 11:00:00 17 8 Sudoeste 15 Sudoeste 0 -- -- 58
2019-04-03 10:00:00 13.8 9 Sudoeste 19 Oeste 0 -- -- 68
2019-04-03 09:00:00 11.7 17 Oeste 23 Oeste 0 -- -- 74
2019-04-03 08:00:00 10.6 10 Oeste 16 Noroeste 0 -- -- 77
2019-04-03 07:00:00 10 12 Noroeste 19 Oeste 0 -- -- 78
2019-04-03 06:00:00 9.6 14 Oeste 20 Noroeste 0 -- -- 80
2019-04-03 05:00:00 10.9 15 Oeste 21 Oeste 0 -- -- 75
2019-04-03 04:00:00 11.8 15 Oeste 22 Noroeste 0 -- -- 71
2019-04-03 03:00:00 11.9 8 Noroeste 15 Oeste 0 -- -- 68
2019-04-03 02:00:00 12.6 3 Oeste 22 Noroeste 0 -- -- 66
2019-04-03 01:00:00 12.4 7 Noroeste 15 Oeste 0 -- -- 72
2019-04-03 00:00:00 13 7 Oeste 10 Norte 0 -- -- 78
2019-04-02 23:00:00 13.8 2 Noroeste 8 Noroeste 0 -- -- 76
2019-04-02 22:00:00 14.2 4 Oeste 7 Este 0 -- -- 77
2019-04-02 21:00:00 14.7 6 Nordeste 16 Este 0 -- -- 73
2019-04-02 20:00:00 16.7 7 Este 15 Este 0 -- -- 64
2019-04-02 19:00:00 17.5 8 Este 25 Este 0 -- -- 63
2019-04-02 18:00:00 19.4 14 Este 26 Este 0 -- -- 62
2019-04-02 17:00:00 21.1 12 Sudeste 22 Sudeste 0 -- -- 55
2019-04-02 16:00:00 21.2 8 Sudeste 17 Sur 0 -- -- 44
2019-04-02 15:00:00 20.9 5 Sur 28 Sudoeste 0 -- -- 41
2019-04-02 14:00:00 19.9 6 Sudeste 19 Sudoeste 0 -- -- 46
2019-04-02 13:00:00 18.4 5 Sudoeste 16 Sudoeste 0 -- -- 55
2019-04-02 12:00:00 16.7 10 Sudoeste 19 Sudoeste 0 -- -- 63
2019-04-02 11:00:00 14 14 Sudoeste 20 Sudoeste 0 -- -- 76
2019-04-02 10:00:00 11.1 3 Sur 8 Sudoeste 0 -- -- 90
2019-04-02 09:00:00 9.1 0 Calma 8 Este 0 -- -- 97
2019-04-02 08:00:00 7.7 2 Sudoeste 10 Noroeste 0 -- -- 93
2019-04-02 07:00:00 8.2 0 Calma 9 Noroeste 0 -- -- 94
2019-04-02 06:00:00 8.5 6 Noroeste 9 Noroeste 0 -- -- 95
2019-04-02 05:00:00 8.7 4 Oeste 10 Noroeste 0 -- -- 94
2019-04-02 04:00:00 9.9 3 Noroeste 6 Sudoeste 0 -- -- 94
2019-04-02 03:00:00 10.8 2 Oeste 4 Oeste 0 -- -- 94
2019-04-02 02:00:00 11.1 0 Calma 5 Oeste 0 -- -- 94
2019-04-02 01:00:00 11.5 0 Calma 4 Noroeste 0 -- -- 95
2019-04-02 00:00:00 11.5 2 Oeste 4 Sudoeste 0 -- -- 95
2019-04-01 23:00:00 11.3 2 Sudeste 6 Nordeste 0 -- -- 95
2019-04-01 22:00:00 11.5 3 Oeste 5 Oeste 0 -- -- 93
2019-04-01 21:00:00 11.7 0 Calma 5 Este 0 -- -- 92
2019-04-01 20:00:00 12.6 2 Sudoeste 6 Sur 0 -- -- 90
2019-04-01 19:00:00 11.9 5 Sudoeste 23 Sudoeste 2.6 -- -- 94
2019-04-01 18:00:00 11.8 10 Sudeste 25 Oeste 3.8 -- -- 92
2019-04-01 17:00:00 12.4 6 Norte 29 Nordeste 3 -- -- 91
2019-04-01 16:00:00 17.5 17 Este 31 Sudeste 0 -- -- 70
2019-04-01 15:00:00 20.1 15 Este 25 Este 0 -- -- 62
2019-04-01 14:00:00 19.6 12 Sudeste 21 Sudeste 0 -- -- 60
2019-04-01 13:00:00 18.2 5 Sudeste 15 Este 0 -- -- 64
2019-04-01 12:00:00 17.1 7 Este 13 Este 0 -- -- 70
2019-04-01 11:00:00 15.3 8 Este 14 Este 0 -- -- 80
2019-04-01 10:00:00 12.5 2 Nordeste 6 Nordeste 0 -- -- 91
2019-04-01 09:00:00 9.1 5 Oeste 12 Nordeste 0 -- -- 96
2019-04-01 08:00:00 8.6 6 Norte 8 Norte 0 -- -- 95
2019-04-01 07:00:00 9.4 4 Norte 8 Norte 0 -- -- 96
2019-04-01 06:00:00 9.8 5 Noroeste 8 Norte 0 -- -- 96
2019-04-01 05:00:00 10.5 6 Norte 8 Norte 0 -- -- 95
2019-04-01 04:00:00 10.9 5 Norte 8 Noroeste 0 -- -- 96
2019-04-01 03:00:00 10.8 5 Noroeste 6 Noroeste 0 -- -- 96
2019-04-01 02:00:00 10.7 2 Oeste 6 Sudoeste 0 -- -- 96
2019-04-01 01:00:00 10.8 3 Sudoeste 6 Sudoeste 0.4 -- -- 95
2019-04-01 00:00:00 11 4 Oeste 5 Oeste 0 -- -- 95
2019-03-31 23:00:00 11.1 0 Calma 4 Sur 0 -- -- 96
2019-03-31 22:00:00 11.1 0 Calma 6 Sudoeste 0 -- -- 96
2019-03-31 21:00:00 11.1 0 Calma 6 Sur 0 -- -- 97
2019-03-31 20:00:00 11.1 4 Sudoeste 12 Sudoeste 0 -- -- 97
2019-03-31 19:00:00 10.9 7 Sudoeste 15 Sudoeste 0 -- -- 97
2019-03-31 18:00:00 10.9 9 Oeste 16 Oeste 0 -- -- 97
2019-03-31 17:00:00 11.2 8 Oeste 13 Sudoeste 0.2 -- -- 97
2019-03-31 16:00:00 11.1 10 Sudoeste 16 Sudoeste 0.2 -- -- 97
2019-03-31 15:00:00 10.9 10 Sudoeste 18 Sudoeste 0.4 -- -- 97
2019-03-31 14:00:00 10.6 13 Sudoeste 17 Sudoeste 0.4 -- -- 97
2019-03-31 13:00:00 10.3 10 Sudoeste 17 Sudoeste 0.2 -- -- 97
2019-03-31 12:00:00 9.7 9 Sudoeste 15 Sudoeste 0.2 -- -- 96
2019-03-31 11:00:00 9.3 9 Sudoeste 15 Sudoeste 0.2 -- -- 96
2019-03-31 10:00:00 8.8 5 Sudoeste 18 Oeste 0.2 -- -- 95
2019-03-31 09:00:00 8.8 9 Sudoeste 14 Sudoeste 0 -- -- 94
2019-03-31 08:00:00 8.7 4 Sudoeste 7 Sudoeste 0 -- -- 93
2019-03-31 07:00:00 8.8 0 Calma 9 Oeste 0.4 -- -- 93
2019-03-31 06:00:00 8.8 6 Sudoeste 12 Oeste 1 -- -- 92
2019-03-31 05:00:00 9.1 7 Oeste 13 Sudoeste 0.4 -- -- 92
2019-03-31 03:00:00 9.7 4 Noroeste 10 Norte 0.2 -- -- 84
2019-03-31 01:00:00 9.7 7 Nordeste 12 Nordeste 0.2 -- -- 84
2019-03-31 00:00:00 10.3 3 Sudeste 8 Nordeste 0 -- -- 85
2019-03-30 23:00:00 10.8 3 Sudeste 13 Este 0.2 -- -- 80
2019-03-30 22:00:00 10.9 4 Sudeste 9 Este 0 -- -- 80
2019-03-30 21:00:00 11.1 6 Este 12 Este 0 -- -- 77
2019-03-30 20:00:00 12.1 3 Este 6 Sudeste 0 -- -- 72
2019-03-30 19:00:00 13.4 4 Sudeste 16 Sudeste 0 -- -- 69
2019-03-30 18:00:00 15.2 9 Sudeste 26 Sudeste 0 -- -- 62
2019-03-30 17:00:00 16.8 17 Este 29 Este 0 -- -- 57
2019-03-30 16:00:00 18.3 15 Sudeste 30 Sudeste 0 -- -- 53
2019-03-30 15:00:00 17.3 15 Sudeste 36 Este 0 -- -- 53
2019-03-30 14:00:00 19.4 15 Este 35 Sudeste 0 -- -- 45
2019-03-30 13:00:00 18.2 19 Este 32 Este 0 -- -- 46
2019-03-30 12:00:00 17.5 15 Este 31 Este 0 -- -- 44
2019-03-30 11:00:00 15.2 7 Este 18 Nordeste 0 -- -- 53
2019-03-30 10:00:00 12.7 6 Sudeste 14 Sudeste 0 -- -- 61
2019-03-30 09:00:00 9.6 3 Sudoeste 6 Norte 0 -- -- 68
2019-03-30 08:00:00 6.8 7 Norte 13 Noroeste 0 -- -- 78
2019-03-30 07:00:00 5.3 8 Noroeste 10 Noroeste 0 -- -- 79
2019-03-30 06:00:00 5.3 8 Norte 11 Norte 0 -- -- 79
2019-03-30 05:00:00 5.7 9 Noroeste 13 Noroeste 0 -- -- 75
2019-03-30 04:00:00 5.9 4 Noroeste 12 Norte 0 -- -- 74
2019-03-30 03:00:00 5.9 10 Norte 13 Norte 0 -- -- 72
2019-03-30 02:00:00 5.9 8 Norte 10 Norte 0 -- -- 72
2019-03-30 01:00:00 7.1 5 Noroeste 7 Noroeste 0 -- -- 73
2019-03-30 00:00:00 7.5 3 Noroeste 8 Nordeste 0 -- -- 74
2019-03-29 23:00:00 8.8 2 Este 10 Nordeste 0 -- -- 70
2019-03-29 22:00:00 10 5 Este 12 Este 0 -- -- 70
2019-03-29 21:00:00 10.8 6 Este 10 Sudeste 0 -- -- 73
2019-03-29 20:00:00 11.6 7 Sudeste 17 Sudeste 0 -- -- 74
2019-03-29 19:00:00 12.8 9 Sudeste 22 Sudeste 0 -- -- 66
2019-03-29 18:00:00 15.2 12 Sudeste 27 Sudeste 0 -- -- 56
2019-03-29 17:00:00 15.5 15 Este 28 Este 0 -- -- 55
2019-03-29 16:00:00 16.3 15 Sudeste 32 Sudeste 0 -- -- 53
2019-03-29 15:00:00 15.4 16 Este 33 Este 0 -- -- 54
2019-03-29 14:00:00 15.7 15 Este 32 Este 0 -- -- 48
2019-03-29 13:00:00 16.6 18 Este 32 Este 0 -- -- 45
2019-03-29 12:00:00 14.9 15 Este 30 Este 0 -- -- 51
2019-03-29 11:00:00 14.3 14 Este 27 Este 0 -- -- 51
2019-03-29 10:00:00 12.5 14 Este 26 Este 0 -- -- 60
2019-03-29 09:00:00 10.1 5 Este 10 Nordeste 0 -- -- 68
2019-03-29 08:00:00 7.4 4 Norte 11 Norte 0 -- -- 69
2019-03-29 07:00:00 5.6 4 Norte 9 Norte 0 -- -- 73
2019-03-29 06:00:00 4.9 6 Norte 13 Norte 0 -- -- 70
2019-03-29 05:00:00 5.3 10 Norte 13 Norte 0 -- -- 64
2019-03-29 04:00:00 5.2 8 Noroeste 10 Noroeste 0 -- -- 60
2019-03-29 03:00:00 5.4 7 Norte 13 Norte 0 -- -- 62
2019-03-29 02:00:00 5.6 7 Norte 13 Norte 0 -- -- 65
2019-03-29 01:00:00 6.1 8 Norte 13 Norte 0 -- -- 71
2019-03-29 00:00:00 7.8 6 Noroeste 7 Noroeste 0 -- -- 81
2019-03-28 23:00:00 8.5 4 Noroeste 5 Noroeste 0 -- -- 79
2019-03-28 22:00:00 9.2 0 Calma 7 Sudeste 0 -- -- 75
2019-03-28 21:00:00 9.6 3 Sudeste 10 Este 0 -- -- 74
2019-03-28 20:00:00 10.7 6 Este 21 Sudeste 0 -- -- 67
2019-03-28 19:00:00 13.4 11 Sudeste 28 Este 0 -- -- 57
2019-03-28 18:00:00 15.7 16 Sudeste 32 Sudeste 0 -- -- 49
2019-03-28 17:00:00 17.7 17 Este 32 Este 0 -- -- 40
2019-03-28 16:00:00 18.1 14 Sudeste 34 Este 0 -- -- 37
2019-03-28 15:00:00 18.8 14 Sudeste 35 Sudeste 0 -- -- 31
2019-03-28 14:00:00 18.7 21 Este 37 Sudeste 0 -- -- 26
2019-03-28 13:00:00 18 18 Este 29 Este 0 -- -- 26
2019-03-28 12:00:00 17.5 11 Sudeste 25 Este 0 -- -- 27
2019-03-28 11:00:00 16 15 Este 26 Este 0 -- -- 26
2019-03-28 10:00:00 12.1 4 Sur 11 Sudoeste 0 -- -- 34
2019-03-28 09:00:00 8.2 6 Sudoeste 11 Sudoeste 0 -- -- 46
2019-03-28 08:00:00 5.8 4 Oeste 8 Noroeste 0 -- -- 46
2019-03-28 07:00:00 4.6 5 Oeste 10 Noroeste 0 -- -- 51
2019-03-28 06:00:00 5.3 9 Noroeste 10 Noroeste 0 -- -- 51
2019-03-28 05:00:00 4.5 5 Oeste 10 Norte 0 -- -- 58
2019-03-28 04:00:00 5.4 10 Norte 15 Norte 0 -- -- 55
2019-03-28 03:00:00 6 8 Norte 17 Norte 0 -- -- 50
2019-03-28 02:00:00 6.2 13 Norte 18 Norte 0 -- -- 45
2019-03-28 01:00:00 6.4 10 Norte 14 Norte 0 -- -- 52
2019-03-28 00:00:00 7.1 8 Norte 12 Noroeste 0 -- -- 67
2019-03-27 23:00:00 7.1 6 Norte 10 Norte 0 -- -- 74
2019-03-27 22:00:00 8.7 2 Norte 6 Este 0 -- -- 76
2019-03-27 21:00:00 9.5 4 Este 11 Sudeste 0 -- -- 72
2019-03-27 20:00:00 10.7 7 Sudeste 20 Sudeste 0 -- -- 68
2019-03-27 19:00:00 13.2 10 Este 27 Sudeste 0 -- -- 60
2019-03-27 18:00:00 15.7 17 Sudeste 32 Sudeste 0 -- -- 50
2019-03-27 17:00:00 17.3 17 Sudeste 41 Este 0 -- -- 47
2019-03-27 16:00:00 18.3 16 Este 40 Nordeste 0 -- -- 37
2019-03-27 15:00:00 18.2 19 Este 43 Este 0 -- -- 32
2019-03-27 14:00:00 18.1 20 Este 40 Este 0 -- -- 33
2019-03-27 13:00:00 16.9 23 Este 42 Este 0 -- -- 33
2019-03-27 12:00:00 15.7 22 Este 41 Este 0 -- -- 35
2019-03-27 11:00:00 14.6 21 Nordeste 42 Nordeste 0 -- -- 39
2019-03-27 10:00:00 12.9 25 Nordeste 42 Nordeste 0 -- -- 44
2019-03-27 09:00:00 11.2 15 Nordeste 26 Nordeste 0 -- -- 54
2019-03-27 08:00:00 7.8 10 Norte 17 Norte 0 -- -- 65
2019-03-27 07:00:00 5.9 9 Norte 13 Norte 0 -- -- 69
2019-03-27 06:00:00 6.3 6 Norte 9 Norte 0 -- -- 66
2019-03-27 05:00:00 6.6 8 Norte 14 Norte 0 -- -- 63
2019-03-27 04:00:00 6.8 8 Norte 10 Norte 0 -- -- 63
2019-03-27 03:00:00 7.1 7 Norte 13 Nordeste 0 -- -- 67
2019-03-27 02:00:00 7.7 8 Norte 19 Nordeste 0 -- -- 72
2019-03-27 01:00:00 8.3 8 Nordeste 26 Nordeste 0 -- -- 70
2019-03-27 00:00:00 8.1 10 Este 20 Este 0 -- -- 66
2019-03-26 23:00:00 8.9 6 Este 11 Este 0 -- -- 72
2019-03-26 22:00:00 10.2 6 Este 19 Nordeste 0 -- -- 65
2019-03-26 21:00:00 11 11 Nordeste 20 Nordeste 0 -- -- 68
2019-03-26 20:00:00 11.9 19 Este 31 Nordeste 0 -- -- 66
2019-03-26 19:00:00 12.7 14 Este 30 Este 0 -- -- 75
2019-03-26 18:00:00 13.7 17 Este 36 Este 0 -- -- 73
2019-03-26 17:00:00 15.8 19 Este 32 Sudeste 0 -- -- 63
2019-03-26 16:00:00 16.8 17 Este 44 Este 0 -- -- 54
2019-03-26 15:00:00 18.7 25 Este 43 Este 0 -- -- 42
2019-03-26 14:00:00 19 25 Este 47 Este 0 -- -- 43
2019-03-26 13:00:00 18.2 28 Este 50 Sudeste 0 -- -- 45
2019-03-26 12:00:00 17.6 25 Este 44 Este 0 -- -- 38
2019-03-26 11:00:00 17.8 21 Este 35 Este 0 -- -- 34
2019-03-26 10:00:00 16.1 5 Sudeste 21 Este 0 -- -- 37
2019-03-26 09:00:00 12.7 2 Sudoeste 9 Norte 0 -- -- 47
2019-03-26 08:00:00 9.7 8 Norte 10 Norte 0 -- -- 49
2019-03-26 07:00:00 9 6 Oeste 8 Oeste 0 -- -- 47
2019-03-26 06:00:00 9.6 4 Noroeste 14 Norte 0 -- -- 46
2019-03-26 05:00:00 9.1 11 Norte 13 Norte 0 -- -- 47
2019-03-26 04:00:00 9.1 8 Norte 10 Noroeste 0 -- -- 50
2019-03-26 03:00:00 9 7 Noroeste 13 Noroeste 0 -- -- 53
2019-03-26 02:00:00 9.2 4 Oeste 12 Noroeste 0 -- -- 62
2019-03-26 01:00:00 9.9 7 Noroeste 14 Norte 0 -- -- 59
2019-03-26 00:00:00 9.9 8 Noroeste 12 Norte 0 -- -- 68
2019-03-25 23:00:00 10.9 9 Noroeste 13 Noroeste 0 -- -- 65
2019-03-25 22:00:00 11.6 8 Noroeste 11 Noroeste 0 -- -- 62
2019-03-25 21:00:00 12.5 0 Calma 4 Sudeste 0 -- -- 57
2019-03-25 20:00:00 13.9 2 Este 14 Este 0 -- -- 52
2019-03-25 19:00:00 16.6 9 Este 27 Sudeste 0 -- -- 46
2019-03-25 18:00:00 18.9 15 Este 30 Sudeste 0 -- -- 44
2019-03-25 17:00:00 20.7 17 Sudeste 28 Este 0 -- -- 40
2019-03-25 16:00:00 22 16 Sudeste 32 Sudeste 0 -- -- 39
2019-03-25 15:00:00 22.2 15 Sudeste 30 Este 0 -- -- 37
2019-03-25 14:00:00 22.3 17 Este 33 Este 0 -- -- 36
2019-03-25 13:00:00 21.5 15 Este 32 Este 0 -- -- 38
2019-03-25 12:00:00 20.5 18 Este 30 Este 0 -- -- 39
2019-03-25 11:00:00 18.7 9 Sudeste 19 Este 0 -- -- 40
2019-03-25 10:00:00 15.5 5 Sur 9 Sur 0 -- -- 46
2019-03-25 09:00:00 11.3 2 Sudoeste 9 Noroeste 0 -- -- 63
2019-03-25 08:00:00 8.6 6 Noroeste 10 Noroeste 0 -- -- 69
2019-03-25 07:00:00 8.1 6 Noroeste 12 Noroeste 0 -- -- 70
2019-03-25 06:00:00 8.8 6 Oeste 14 Norte 0 -- -- 69
2019-03-25 05:00:00 9.4 6 Noroeste 12 Noroeste 0 -- -- 67
2019-03-25 04:00:00 10.1 8 Noroeste 10 Noroeste 0 -- -- 63
2019-03-25 03:00:00 10.3 5 Oeste 10 Noroeste 0 -- -- 60
2019-03-25 02:00:00 10.5 6 Noroeste 8 Noroeste 0 -- -- 59
2019-03-25 01:00:00 10.8 3 Noroeste 8 Nordeste 0 -- -- 61
2019-03-25 00:00:00 10.7 6 Norte 14 Noroeste 0 -- -- 64